createdAt,value
2018-06-12T00:03:05.440Z,17.50
2018-06-12T00:07:49.828Z,17.40
2018-06-12T00:12:34.286Z,17.20
2018-06-12T00:17:18.781Z,17.20
2018-06-12T00:22:03.075Z,17.10
2018-06-12T00:26:47.443Z,17.00
2018-06-12T00:31:31.916Z,16.80
2018-06-12T00:36:16.600Z,16.70
2018-06-12T00:41:01.016Z,16.70
2018-06-12T00:45:46.355Z,16.60
2018-06-12T00:50:30.859Z,16.50
2018-06-12T00:55:15.254Z,16.30
2018-06-12T00:59:59.649Z,16.30
2018-06-12T01:04:44.090Z,16.20
2018-06-12T01:09:28.454Z,16.20
2018-06-12T01:14:12.978Z,16.10
2018-06-12T01:18:57.506Z,16.10
2018-06-12T01:23:42.182Z,16.00
2018-06-12T01:28:26.883Z,16.00
2018-06-12T01:33:11.587Z,15.90
2018-06-12T01:37:56.217Z,15.80
2018-06-12T01:42:41.358Z,15.60
2018-06-12T01:47:25.991Z,15.50
2018-06-12T01:52:10.582Z,15.50
2018-06-12T01:56:55.043Z,15.50
2018-06-12T02:01:39.708Z,15.50
2018-06-12T02:06:24.275Z,15.40
2018-06-12T02:16:20.696Z,15.70
2018-06-12T02:21:05.092Z,15.70
2018-06-12T02:25:49.560Z,15.60
2018-06-12T02:30:34.134Z,15.60
2018-06-12T02:35:18.664Z,15.50
2018-06-12T02:40:03.051Z,15.40
2018-06-12T02:44:47.477Z,15.40
2018-06-12T02:49:31.890Z,15.40
2018-06-12T02:54:16.340Z,15.40
2018-06-12T02:59:00.942Z,15.30
2018-06-12T03:03:45.312Z,15.30
2018-06-12T03:08:29.828Z,15.30
2018-06-12T03:13:14.325Z,15.30
2018-06-12T03:17:58.848Z,15.30
2018-06-12T03:22:43.240Z,15.30
2018-06-12T03:27:27.616Z,15.30
2018-06-12T03:32:12.045Z,15.30
2018-06-12T03:36:56.582Z,15.10
2018-06-12T03:41:41.156Z,15.10
2018-06-12T03:46:26.584Z,15.10
2018-06-12T03:51:11.004Z,15.10
2018-06-12T03:55:55.454Z,15.00
2018-06-12T04:00:39.919Z,15.00
2018-06-12T04:05:24.370Z,14.90
2018-06-12T04:10:08.771Z,14.90
2018-06-12T04:14:53.280Z,14.90
2018-06-12T04:19:37.752Z,14.80
2018-06-12T04:24:22.101Z,14.90
2018-06-12T04:29:06.492Z,14.90
2018-06-12T04:33:51.040Z,15.00
2018-06-12T04:38:35.661Z,15.00
2018-06-12T04:43:20.246Z,15.10
2018-06-12T04:48:04.591Z,15.10
2018-06-12T04:52:48.946Z,15.20
2018-06-12T04:57:33.413Z,15.20
2018-06-12T05:02:17.781Z,15.30
2018-06-12T05:07:02.172Z,15.20
2018-06-12T05:11:46.507Z,15.30
2018-06-12T05:16:31.046Z,15.40
2018-06-12T05:21:15.695Z,15.40
2018-06-12T05:26:00.153Z,15.50
2018-06-12T05:31:00.741Z,15.40
2018-06-12T05:35:45.079Z,15.40
2018-06-12T05:40:29.430Z,15.30
2018-06-12T05:49:58.964Z,15.50
2018-06-12T05:54:43.382Z,15.40
2018-06-12T05:59:27.813Z,15.50
2018-06-12T06:04:12.206Z,15.50
2018-06-12T06:13:40.570Z,15.70
2018-06-12T06:18:25.184Z,15.80
2018-06-12T06:23:09.498Z,15.80
2018-06-12T06:27:54.971Z,16.00
2018-06-12T06:32:39.565Z,16.00
2018-06-12T06:37:23.901Z,16.00
2018-06-12T06:42:08.381Z,16.00
2018-06-12T06:46:52.837Z,16.10
2018-06-12T06:51:37.163Z,16.30
2018-06-12T06:56:21.985Z,16.80
2018-06-12T07:01:08.070Z,17.20
2018-06-12T07:05:52.446Z,17.30
2018-06-12T07:10:36.908Z,17.30
2018-06-12T07:15:21.323Z,17.60
2018-06-12T07:20:05.812Z,17.60
2018-06-12T07:24:50.275Z,17.80
2018-06-12T07:29:34.748Z,17.90
2018-06-12T07:34:19.238Z,18.20
2018-06-12T07:39:04.961Z,18.40
2018-06-12T07:43:49.337Z,18.60
2018-06-12T07:48:33.771Z,18.40
2018-06-12T07:53:18.243Z,18.30
2018-06-12T07:58:03.097Z,18.10
2018-06-12T08:02:47.545Z,18.20
2018-06-12T08:07:31.950Z,18.20
2018-06-12T08:12:16.377Z,18.30
2018-06-12T08:17:00.946Z,18.40
2018-06-12T08:21:45.317Z,19.00
2018-06-12T08:26:30.026Z,19.10
2018-06-12T08:31:14.700Z,19.30
2018-06-12T08:35:59.364Z,19.90
2018-06-12T08:40:43.717Z,19.80
2018-06-12T08:45:28.162Z,20.80
2018-06-12T08:50:12.514Z,21.00
2018-06-12T08:54:56.982Z,20.40
2018-06-12T08:59:41.358Z,19.80
2018-06-12T09:04:25.750Z,20.20
2018-06-12T09:09:10.306Z,20.60
2018-06-12T09:13:54.617Z,20.60
2018-06-12T09:23:23.142Z,20.10
2018-06-12T09:28:07.524Z,20.40
2018-06-12T09:32:51.988Z,20.80
2018-06-12T09:37:36.453Z,21.60
2018-06-12T09:42:20.978Z,22.30
2018-06-12T09:47:05.437Z,22.40
2018-06-12T09:51:49.807Z,22.10
2018-06-12T09:56:34.126Z,22.10
2018-06-12T10:01:18.640Z,22.10
2018-06-12T10:06:03.016Z,22.50
2018-06-12T10:10:47.444Z,23.00
2018-06-12T10:15:31.905Z,22.60
2018-06-12T10:20:16.264Z,22.80
2018-06-12T10:25:00.709Z,23.10
2018-06-12T10:29:45.197Z,22.70
2018-06-12T10:34:29.747Z,22.70
2018-06-12T10:39:14.082Z,22.30
2018-06-12T10:43:58.530Z,22.30
2018-06-12T10:48:42.955Z,22.50
2018-06-12T10:53:27.399Z,23.00
2018-06-12T10:58:11.777Z,23.10
2018-06-12T11:02:56.208Z,22.80
2018-06-12T11:07:40.582Z,23.20
2018-06-12T11:12:24.996Z,23.20
2018-06-12T11:17:09.519Z,23.70
2018-06-12T11:21:54.207Z,24.80
2018-06-12T11:26:38.821Z,25.30
2018-06-12T11:31:23.306Z,25.60
2018-06-12T11:36:08.672Z,25.90
2018-06-12T11:40:53.154Z,24.90
2018-06-12T11:45:37.706Z,24.90
2018-06-12T11:50:22.107Z,25.40
2018-06-12T11:55:06.969Z,25.50
2018-06-12T11:59:51.636Z,25.70
2018-06-12T12:04:36.121Z,25.90
2018-06-12T12:09:20.571Z,24.90
2018-06-12T12:14:05.556Z,24.80
2018-06-12T12:18:49.980Z,24.20
2018-06-12T12:23:34.723Z,25.40
2018-06-12T12:28:19.157Z,25.60
2018-06-12T12:33:03.558Z,24.80
2018-06-12T12:37:48.033Z,24.90
2018-06-12T12:42:32.461Z,25.20
2018-06-12T12:47:16.848Z,25.60
2018-06-12T12:52:01.256Z,26.00
2018-06-12T12:56:45.866Z,26.20
2018-06-12T13:01:30.366Z,26.10
2018-06-12T13:06:14.824Z,25.50
2018-06-12T13:10:59.253Z,24.80
2018-06-12T13:15:43.956Z,24.80
2018-06-12T13:20:28.251Z,24.80
2018-06-12T13:25:12.820Z,24.50
2018-06-12T13:29:57.203Z,24.90
2018-06-12T13:34:41.581Z,24.30
2018-06-12T13:39:25.975Z,24.20
2018-06-12T13:44:10.573Z,24.50
2018-06-12T13:48:55.104Z,24.30
2018-06-12T13:53:39.475Z,24.70
2018-06-12T13:58:23.827Z,24.80
2018-06-12T14:03:08.346Z,25.00
2018-06-12T14:07:53.000Z,26.10
2018-06-12T14:12:37.919Z,24.50
2018-06-12T14:17:22.403Z,23.80
2018-06-12T14:22:07.015Z,23.30
2018-06-12T14:26:51.468Z,23.60
2018-06-12T14:31:36.006Z,24.00
2018-06-12T14:36:20.574Z,24.20
2018-06-12T14:41:05.020Z,24.40
2018-06-12T14:50:33.527Z,24.60
2018-06-12T14:55:18.009Z,25.30
2018-06-12T15:00:02.387Z,26.00
2018-06-12T15:04:46.800Z,26.10
2018-06-12T15:09:31.252Z,26.00
2018-06-12T15:14:15.768Z,25.00
2018-06-12T15:19:00.360Z,24.30
2018-06-12T15:23:44.772Z,23.40
2018-06-12T15:28:29.286Z,23.00
2018-06-12T15:33:13.686Z,23.80
2018-06-12T15:37:58.132Z,23.80
2018-06-12T15:42:42.515Z,24.10
2018-06-12T15:47:26.885Z,25.00
2018-06-12T15:52:11.375Z,26.10
2018-06-12T15:56:55.956Z,26.00
2018-06-12T16:01:40.498Z,25.00
2018-06-12T16:06:24.788Z,24.40
2018-06-12T16:11:09.215Z,24.70
2018-06-12T16:15:53.894Z,24.60
2018-06-12T16:20:38.325Z,23.70
2018-06-12T16:25:22.670Z,23.90
2018-06-12T16:30:07.145Z,23.80
2018-06-12T16:34:51.477Z,23.90
2018-06-12T16:39:35.895Z,23.40
2018-06-12T16:44:20.350Z,23.30
2018-06-12T16:49:04.759Z,23.90
2018-06-12T16:53:49.163Z,25.10
2018-06-12T16:58:33.542Z,25.20
2018-06-12T17:03:18.102Z,24.60
2018-06-12T17:08:02.514Z,25.10
2018-06-12T17:12:46.944Z,26.20
2018-06-12T17:17:31.373Z,26.20
2018-06-12T17:22:15.819Z,26.40
2018-06-12T17:27:00.626Z,26.60
2018-06-12T17:31:45.084Z,26.70
2018-06-12T17:36:29.574Z,26.60
2018-06-12T17:41:13.961Z,26.00
2018-06-12T17:45:58.490Z,24.40
2018-06-12T17:50:43.021Z,22.40
2018-06-12T17:55:27.621Z,21.20
2018-06-12T18:00:12.453Z,20.40
2018-06-12T18:04:57.103Z,19.70
2018-06-12T18:09:41.723Z,19.10
2018-06-12T18:14:26.130Z,18.40
2018-06-12T18:19:10.559Z,18.10
2018-06-12T18:23:55.111Z,17.90
2018-06-12T18:28:39.606Z,17.80
2018-06-12T18:33:23.998Z,17.70
2018-06-12T18:38:08.358Z,17.70
2018-06-12T18:42:52.775Z,17.60
2018-06-12T18:47:38.148Z,17.50
2018-06-12T18:52:29.462Z,17.40
2018-06-12T18:57:13.895Z,17.40
2018-06-12T19:01:58.343Z,17.30
2018-06-12T19:06:42.903Z,17.20
2018-06-12T19:11:27.274Z,17.10
2018-06-12T19:16:11.913Z,17.00
2018-06-12T19:20:56.481Z,17.00
2018-06-12T19:25:41.260Z,16.90
2018-06-12T19:30:25.847Z,16.80
2018-06-12T19:35:10.425Z,16.80
2018-06-12T19:39:55.084Z,16.90
2018-06-12T19:44:39.936Z,16.80
2018-06-12T19:49:24.428Z,16.70
2018-06-12T19:54:09.089Z,16.70
2018-06-12T19:58:53.838Z,16.60
2018-06-12T20:03:38.466Z,16.70
2018-06-12T20:08:23.072Z,16.80
2018-06-12T20:13:07.802Z,16.80
2018-06-12T20:17:52.444Z,16.80
2018-06-12T20:22:36.955Z,16.70
2018-06-12T20:27:21.601Z,16.70
2018-06-12T20:32:06.029Z,16.70
2018-06-12T20:36:50.743Z,16.70
2018-06-12T20:41:35.603Z,16.60
2018-06-12T20:46:20.182Z,16.60
2018-06-12T20:51:04.793Z,16.60
2018-06-12T20:55:49.411Z,16.50
2018-06-12T21:00:33.959Z,16.50
2018-06-12T21:05:19.607Z,16.40
2018-06-12T21:10:04.555Z,16.40
2018-06-12T21:14:49.230Z,16.40
2018-06-12T21:19:33.731Z,16.30
2018-06-12T21:24:18.388Z,16.30
2018-06-12T21:29:02.919Z,16.20
2018-06-12T21:33:47.460Z,16.10
2018-06-12T21:38:32.163Z,16.10
2018-06-12T21:43:16.726Z,16.10
2018-06-12T21:48:01.286Z,16.10
2018-06-12T21:52:45.768Z,16.10
2018-06-12T21:57:30.390Z,16.10
2018-06-12T22:02:14.941Z,16.10
2018-06-12T22:07:00.129Z,16.00
2018-06-12T22:11:44.467Z,16.10
2018-06-12T22:16:28.892Z,16.00
2018-06-12T22:21:13.300Z,16.00
2018-06-12T22:25:57.836Z,16.00
2018-06-12T22:30:42.557Z,15.90
2018-06-12T22:35:27.027Z,15.80
2018-06-12T22:40:11.359Z,15.80
2018-06-12T22:44:55.764Z,15.80
2018-06-12T22:49:40.232Z,15.80
2018-06-12T22:54:24.641Z,15.80
2018-06-12T22:59:09.098Z,15.80
2018-06-12T23:03:53.562Z,15.70
2018-06-12T23:08:37.894Z,15.70
2018-06-12T23:13:22.267Z,15.60
2018-06-12T23:18:06.698Z,15.50
2018-06-12T23:22:51.239Z,15.50
2018-06-12T23:27:35.639Z,15.40
2018-06-12T23:32:19.945Z,15.50
2018-06-12T23:37:04.306Z,15.40
2018-06-12T23:41:48.715Z,15.30
2018-06-12T23:46:33.157Z,15.30
2018-06-12T23:51:17.650Z,15.30
2018-06-12T23:56:02.002Z,15.30
